sensor_id;sensor_type;location;lat;lon;timestamp;temperature;humidity
83289;DHT22;73193;50.866;5.420;2024-03-23T00:54:42;7.20;72.60
83289;DHT22;73193;50.866;5.420;2024-03-23T00:56:13;7.00;72.40
83289;DHT22;73193;50.866;5.420;2024-03-23T00:57:44;7.00;72.90
83289;DHT22;73193;50.866;5.420;2024-03-23T00:59:14;7.00;72.90
83289;DHT22;73193;50.866;5.420;2024-03-23T01:00:45;7.10;73.00
83289;DHT22;73193;50.866;5.420;2024-03-23T01:02:15;7.20;72.60
83289;DHT22;73193;50.866;5.420;2024-03-23T01:03:46;7.40;72.60
83289;DHT22;73193;50.866;5.420;2024-03-23T01:05:17;7.50;71.90
83289;DHT22;73193;50.866;5.420;2024-03-23T01:06:47;7.40;71.20
83289;DHT22;73193;50.866;5.420;2024-03-23T01:08:18;7.40;71.50
83289;DHT22;73193;50.866;5.420;2024-03-23T01:09:49;7.40;71.50
83289;DHT22;73193;50.866;5.420;2024-03-23T01:11:19;7.60;71.50
83289;DHT22;73193;50.866;5.420;2024-03-23T01:12:50;7.80;71.00
83289;DHT22;73193;50.866;5.420;2024-03-23T01:14:20;7.80;71.00
83289;DHT22;73193;50.866;5.420;2024-03-23T01:15:52;7.80;71.20
83289;DHT22;73193;50.866;5.420;2024-03-23T01:17:22;8.00;70.80
83289;DHT22;73193;50.866;5.420;2024-03-23T01:18:53;8.00;70.50
83289;DHT22;73193;50.866;5.420;2024-03-23T01:20:24;8.10;70.70
83289;DHT22;73193;50.866;5.420;2024-03-23T01:21:54;8.00;70.20
83289;DHT22;73193;50.866;5.420;2024-03-23T01:23:25;8.00;71.10
83289;DHT22;73193;50.866;5.420;2024-03-23T01:24:55;8.10;70.60
83289;DHT22;73193;50.866;5.420;2024-03-23T01:26:26;8.10;70.50
83289;DHT22;73193;50.866;5.420;2024-03-23T01:27:57;8.20;70.20
83289;DHT22;73193;50.866;5.420;2024-03-23T01:29:27;8.30;70.30
83289;DHT22;73193;50.866;5.420;2024-03-23T01:30:58;8.40;70.00
83289;DHT22;73193;50.866;5.420;2024-03-23T01:32:28;8.20;69.90
83289;DHT22;73193;50.866;5.420;2024-03-23T01:33:59;8.10;71.00
83289;DHT22;73193;50.866;5.420;2024-03-23T01:35:30;8.20;71.20
83289;DHT22;73193;50.866;5.420;2024-03-23T01:37:00;8.20;71.20
83289;DHT22;73193;50.866;5.420;2024-03-23T01:38:31;8.20;71.00
83289;DHT22;73193;50.866;5.420;2024-03-23T01:40:02;8.20;70.50
83289;DHT22;73193;50.866;5.420;2024-03-23T01:41:34;8.00;70.80
83289;DHT22;73193;50.866;5.420;2024-03-23T01:43:07;7.80;70.70
83289;DHT22;73193;50.866;5.420;2024-03-23T01:44:41;7.80;71.30
83289;DHT22;73193;50.866;5.420;2024-03-23T01:46:11;7.60;72.10
83289;DHT22;73193;50.866;5.420;2024-03-23T01:47:42;7.80;72.10
83289;DHT22;73193;50.866;5.420;2024-03-23T01:49:13;7.80;72.10
83289;DHT22;73193;50.866;5.420;2024-03-23T01:50:44;8.00;71.70
83289;DHT22;73193;50.866;5.420;2024-03-23T01:52:14;7.90;71.20
83289;DHT22;73193;50.866;5.420;2024-03-23T01:53:45;7.80;71.60
83289;DHT22;73193;50.866;5.420;2024-03-23T01:55:16;7.80;71.60
83289;DHT22;73193;50.866;5.420;2024-03-23T01:56:47;7.90;71.50
83289;DHT22;73193;50.866;5.420;2024-03-23T01:58:19;8.00;71.10
83289;DHT22;73193;50.866;5.420;2024-03-23T01:59:50;8.10;70.30
83289;DHT22;73193;50.866;5.420;2024-03-23T02:01:21;8.20;69.80
83289;DHT22;73193;50.866;5.420;2024-03-23T02:02:51;8.30;69.70
83289;DHT22;73193;50.866;5.420;2024-03-23T02:04:22;8.30;69.70
83289;DHT22;73193;50.866;5.420;2024-03-23T02:05:54;8.00;70.10
83289;DHT22;73193;50.866;5.420;2024-03-23T02:07:25;7.70;71.20
83289;DHT22;73193;50.866;5.420;2024-03-23T02:08:56;7.80;71.90
83289;DHT22;73193;50.866;5.420;2024-03-23T02:10:27;7.80;71.70
83289;DHT22;73193;50.866;5.420;2024-03-23T02:11:58;7.80;71.70
83289;DHT22;73193;50.866;5.420;2024-03-23T02:13:28;7.80;71.70
83289;DHT22;73193;50.866;5.420;2024-03-23T02:14:59;7.60;71.80
83289;DHT22;73193;50.866;5.420;2024-03-23T02:16:30;7.60;72.10
83289;DHT22;73193;50.866;5.420;2024-03-23T02:18:00;7.60;72.00
83289;DHT22;73193;50.866;5.420;2024-03-23T02:19:31;7.60;71.70
83289;DHT22;73193;50.866;5.420;2024-03-23T02:21:02;7.70;71.70
83289;DHT22;73193;50.866;5.420;2024-03-23T02:22:37;7.30;71.40
83289;DHT22;73193;50.866;5.420;2024-03-23T02:24:08;7.20;72.50
83289;DHT22;73193;50.866;5.420;2024-03-23T02:25:38;7.20;73.00
83289;DHT22;73193;50.866;5.420;2024-03-23T02:27:09;7.30;72.60
83289;DHT22;73193;50.866;5.420;2024-03-23T02:28:40;7.30;72.90
83289;DHT22;73193;50.866;5.420;2024-03-23T02:30:10;7.50;72.70
83289;DHT22;73193;50.866;5.420;2024-03-23T02:31:41;7.60;72.70
83289;DHT22;73193;50.866;5.420;2024-03-23T02:33:12;7.40;72.80
83289;DHT22;73193;50.866;5.420;2024-03-23T02:34:42;7.20;73.30
83289;DHT22;73193;50.866;5.420;2024-03-23T02:36:13;7.20;73.20
83289;DHT22;73193;50.866;5.420;2024-03-23T02:37:45;7.20;72.50
83289;DHT22;73193;50.866;5.420;2024-03-23T02:39:16;7.20;72.60
83289;DHT22;73193;50.866;5.420;2024-03-23T02:40:46;7.00;73.40
83289;DHT22;73193;50.866;5.420;2024-03-23T02:42:17;7.00;73.40
83289;DHT22;73193;50.866;5.420;2024-03-23T02:43:49;7.00;73.20
83289;DHT22;73193;50.866;5.420;2024-03-23T02:45:20;6.90;73.00
83289;DHT22;73193;50.866;5.420;2024-03-23T02:46:50;6.30;75.30
83289;DHT22;73193;50.866;5.420;2024-03-23T02:48:21;6.40;75.50
83289;DHT22;73193;50.866;5.420;2024-03-23T02:49:52;6.40;75.80
83289;DHT22;73193;50.866;5.420;2024-03-23T02:51:22;6.60;74.70
83289;DHT22;73193;50.866;5.420;2024-03-23T02:52:53;6.70;74.70
83289;DHT22;73193;50.866;5.420;2024-03-23T02:54:24;6.90;74.10
83289;DHT22;73193;50.866;5.420;2024-03-23T02:55:58;7.20;73.80
83289;DHT22;73193;50.866;5.420;2024-03-23T02:57:28;7.20;73.20
83289;DHT22;73193;50.866;5.420;2024-03-23T02:58:59;7.20;73.10
83289;DHT22;73193;50.866;5.420;2024-03-23T03:00:30;7.40;72.50
83289;DHT22;73193;50.866;5.420;2024-03-23T03:02:01;7.40;72.80
83289;DHT22;73193;50.866;5.420;2024-03-23T03:03:31;7.50;72.50
83289;DHT22;73193;50.866;5.420;2024-03-23T03:05:02;7.60;72.10
83289;DHT22;73193;50.866;5.420;2024-03-23T03:06:33;7.50;72.30
83289;DHT22;73193;50.866;5.420;2024-03-23T03:08:04;7.50;72.30
83289;DHT22;73193;50.866;5.420;2024-03-23T03:09:34;7.50;72.30
83289;DHT22;73193;50.866;5.420;2024-03-23T03:11:05;7.50;72.70
83289;DHT22;73193;50.866;5.420;2024-03-23T03:12:37;7.50;73.00
83289;DHT22;73193;50.866;5.420;2024-03-23T03:14:08;7.20;73.30
83289;DHT22;73193;50.866;5.420;2024-03-23T03:15:43;7.20;73.20
83289;DHT22;73193;50.866;5.420;2024-03-23T03:17:13;7.50;72.80
83289;DHT22;73193;50.866;5.420;2024-03-23T03:18:45;7.60;72.30
83289;DHT22;73193;50.866;5.420;2024-03-23T03:20:16;7.70;71.80
83289;DHT22;73193;50.866;5.420;2024-03-23T03:21:48;7.80;71.30
83289;DHT22;73193;50.866;5.420;2024-03-23T03:23:18;7.80;71.40
83289;DHT22;73193;50.866;5.420;2024-03-23T03:24:49;7.80;71.20
83289;DHT22;73193;50.866;5.420;2024-03-23T03:26:20;8.00;70.70
83289;DHT22;73193;50.866;5.420;2024-03-23T03:27:50;8.00;70.50
83289;DHT22;73193;50.866;5.420;2024-03-23T03:29:21;7.80;70.70
83289;DHT22;73193;50.866;5.420;2024-03-23T03:30:52;7.80;71.20
83289;DHT22;73193;50.866;5.420;2024-03-23T03:32:22;7.60;71.90
83289;DHT22;73193;50.866;5.420;2024-03-23T03:33:53;7.20;72.70
83289;DHT22;73193;50.866;5.420;2024-03-23T03:35:24;7.40;72.50
83289;DHT22;73193;50.866;5.420;2024-03-23T03:36:55;7.50;72.00
83289;DHT22;73193;50.866;5.420;2024-03-23T03:38:25;7.20;72.10
83289;DHT22;73193;50.866;5.420;2024-03-23T03:39:56;6.80;74.00
83289;DHT22;73193;50.866;5.420;2024-03-23T03:41:26;6.80;74.50
83289;DHT22;73193;50.866;5.420;2024-03-23T03:42:57;7.10;74.20
83289;DHT22;73193;50.866;5.420;2024-03-23T03:44:28;7.20;73.30
83289;DHT22;73193;50.866;5.420;2024-03-23T03:46:00;7.20;72.70
83289;DHT22;73193;50.866;5.420;2024-03-23T03:47:31;7.10;72.90
83289;DHT22;73193;50.866;5.420;2024-03-23T03:49:01;7.00;73.20
83289;DHT22;73193;50.866;5.420;2024-03-23T03:50:32;7.00;73.50
83289;DHT22;73193;50.866;5.420;2024-03-23T03:52:03;7.20;73.70
83289;DHT22;73193;50.866;5.420;2024-03-23T03:53:34;7.50;73.20
83289;DHT22;73193;50.866;5.420;2024-03-23T03:55:12;7.60;71.90
83289;DHT22;73193;50.866;5.420;2024-03-23T03:56:43;7.60;71.60
83289;DHT22;73193;50.866;5.420;2024-03-23T03:58:14;7.50;72.20
83289;DHT22;73193;50.866;5.420;2024-03-23T03:59:44;7.60;71.60
83289;DHT22;73193;50.866;5.420;2024-03-23T04:01:15;7.70;71.50
83289;DHT22;73193;50.866;5.420;2024-03-23T04:02:45;7.50;70.70
83289;DHT22;73193;50.866;5.420;2024-03-23T04:04:17;7.50;71.40
83289;DHT22;73193;50.866;5.420;2024-03-23T04:05:54;7.50;71.50
83289;DHT22;73193;50.866;5.420;2024-03-23T04:07:25;7.50;71.60
83289;DHT22;73193;50.866;5.420;2024-03-23T04:08:55;7.50;71.70
83289;DHT22;73193;50.866;5.420;2024-03-23T04:10:26;7.60;71.50
83289;DHT22;73193;50.866;5.420;2024-03-23T04:11:57;7.60;71.20
83289;DHT22;73193;50.866;5.420;2024-03-23T04:13:27;7.60;70.90
83289;DHT22;73193;50.866;5.420;2024-03-23T04:14:58;7.40;71.60
83289;DHT22;73193;50.866;5.420;2024-03-23T04:16:32;7.50;71.60
83289;DHT22;73193;50.866;5.420;2024-03-23T04:18:03;7.50;71.50
83289;DHT22;73193;50.866;5.420;2024-03-23T04:19:33;7.60;71.70
83289;DHT22;73193;50.866;5.420;2024-03-23T04:21:04;7.60;71.50
83289;DHT22;73193;50.866;5.420;2024-03-23T04:22:35;7.70;71.10
83289;DHT22;73193;50.866;5.420;2024-03-23T04:24:05;7.80;70.90
83289;DHT22;73193;50.866;5.420;2024-03-23T04:25:36;7.80;70.70
83289;DHT22;73193;50.866;5.420;2024-03-23T04:27:07;7.70;70.50
83289;DHT22;73193;50.866;5.420;2024-03-23T04:28:37;7.80;70.30
83289;DHT22;73193;50.866;5.420;2024-03-23T04:30:08;7.80;70.20
83289;DHT22;73193;50.866;5.420;2024-03-23T04:31:42;7.80;69.80
83289;DHT22;73193;50.866;5.420;2024-03-23T04:33:13;7.90;70.10
83289;DHT22;73193;50.866;5.420;2024-03-23T04:34:44;7.80;69.90
83289;DHT22;73193;50.866;5.420;2024-03-23T04:36:14;7.70;70.40
83289;DHT22;73193;50.866;5.420;2024-03-23T04:37:45;7.60;70.60
83289;DHT22;73193;50.866;5.420;2024-03-23T04:39:16;7.50;70.90
83289;DHT22;73193;50.866;5.420;2024-03-23T04:40:57;7.50;70.20
83289;DHT22;73193;50.866;5.420;2024-03-23T04:42:28;7.30;70.60
83289;DHT22;73193;50.866;5.420;2024-03-23T04:43:58;7.20;71.20
83289;DHT22;73193;50.866;5.420;2024-03-23T04:45:29;7.10;71.50
83289;DHT22;73193;50.866;5.420;2024-03-23T04:47:00;7.20;71.10
83289;DHT22;73193;50.866;5.420;2024-03-23T04:48:31;7.10;70.90
83289;DHT22;73193;50.866;5.420;2024-03-23T04:50:03;6.90;71.80
83289;DHT22;73193;50.866;5.420;2024-03-23T04:51:37;7.00;71.80
83289;DHT22;73193;50.866;5.420;2024-03-23T04:53:12;7.20;71.20
83289;DHT22;73193;50.866;5.420;2024-03-23T04:54:42;7.10;71.00
83289;DHT22;73193;50.866;5.420;2024-03-23T04:56:14;6.90;71.40
83289;DHT22;73193;50.866;5.420;2024-03-23T04:57:44;6.70;71.90
83289;DHT22;73193;50.866;5.420;2024-03-23T04:59:15;6.70;72.30
83289;DHT22;73193;50.866;5.420;2024-03-23T05:00:46;6.60;72.40
83289;DHT22;73193;50.866;5.420;2024-03-23T05:02:16;6.40;73.20
83289;DHT22;73193;50.866;5.420;2024-03-23T05:03:47;6.50;73.10
83289;DHT22;73193;50.866;5.420;2024-03-23T05:05:19;6.30;73.90
83289;DHT22;73193;50.866;5.420;2024-03-23T05:06:50;6.30;74.00
83289;DHT22;73193;50.866;5.420;2024-03-23T05:08:21;6.40;73.90
83289;DHT22;73193;50.866;5.420;2024-03-23T05:09:51;6.50;73.70
83289;DHT22;73193;50.866;5.420;2024-03-23T05:11:22;6.60;73.50
83289;DHT22;73193;50.866;5.420;2024-03-23T05:12:53;6.60;73.50
83289;DHT22;73193;50.866;5.420;2024-03-23T05:14:24;6.40;74.20
83289;DHT22;73193;50.866;5.420;2024-03-23T05:15:54;6.50;74.10
83289;DHT22;73193;50.866;5.420;2024-03-23T05:17:25;6.40;74.20
83289;DHT22;73193;50.866;5.420;2024-03-23T05:18:56;6.30;74.60
83289;DHT22;73193;50.866;5.420;2024-03-23T05:20:27;6.30;74.80
83289;DHT22;73193;50.866;5.420;2024-03-23T05:21:57;6.40;74.70
83289;DHT22;73193;50.866;5.420;2024-03-23T05:23:29;6.30;74.80
83289;DHT22;73193;50.866;5.420;2024-03-23T05:24:59;6.30;75.00
83289;DHT22;73193;50.866;5.420;2024-03-23T05:26:30;6.30;74.60
83289;DHT22;73193;50.866;5.420;2024-03-23T05:28:01;6.30;74.80
83289;DHT22;73193;50.866;5.420;2024-03-23T05:29:32;6.20;75.10
83289;DHT22;73193;50.866;5.420;2024-03-23T05:31:03;6.20;74.90
83289;DHT22;73193;50.866;5.420;2024-03-23T05:32:34;6.20;75.10
83289;DHT22;73193;50.866;5.420;2024-03-23T05:34:04;6.50;74.70
83289;DHT22;73193;50.866;5.420;2024-03-23T05:35:35;6.60;73.60
83289;DHT22;73193;50.866;5.420;2024-03-23T05:37:06;6.30;74.20
83289;DHT22;73193;50.866;5.420;2024-03-23T05:38:36;6.30;74.90
83289;DHT22;73193;50.866;5.420;2024-03-23T05:40:07;6.60;74.30
83289;DHT22;73193;50.866;5.420;2024-03-23T05:41:39;6.70;73.90
83289;DHT22;73193;50.866;5.420;2024-03-23T05:43:10;6.90;73.20
83289;DHT22;73193;50.866;5.420;2024-03-23T05:44:40;6.70;73.30
83289;DHT22;73193;50.866;5.420;2024-03-23T05:46:11;6.80;73.60
83289;DHT22;73193;50.866;5.420;2024-03-23T05:47:42;6.90;73.10
83289;DHT22;73193;50.866;5.420;2024-03-23T05:49:12;6.90;72.70
83289;DHT22;73193;50.866;5.420;2024-03-23T05:50:43;6.70;73.80
83289;DHT22;73193;50.866;5.420;2024-03-23T05:52:14;6.60;73.80
83289;DHT22;73193;50.866;5.420;2024-03-23T05:53:45;6.60;74.00
83289;DHT22;73193;50.866;5.420;2024-03-23T05:55:16;6.70;74.20
83289;DHT22;73193;50.866;5.420;2024-03-23T05:56:46;6.80;73.60
83289;DHT22;73193;50.866;5.420;2024-03-23T05:58:17;6.90;73.40
83289;DHT22;73193;50.866;5.420;2024-03-23T05:59:49;6.80;73.30
83289;DHT22;73193;50.866;5.420;2024-03-23T06:01:19;6.60;74.00
83289;DHT22;73193;50.866;5.420;2024-03-23T06:02:50;6.60;74.00
83289;DHT22;73193;50.866;5.420;2024-03-23T06:04:21;6.50;73.80
83289;DHT22;73193;50.866;5.420;2024-03-23T06:05:55;6.50;73.20
83289;DHT22;73193;50.866;5.420;2024-03-23T06:07:25;6.40;73.00
83289;DHT22;73193;50.866;5.420;2024-03-23T06:08:56;6.40;73.60
83289;DHT22;73193;50.866;5.420;2024-03-23T06:10:28;6.60;73.10
83289;DHT22;73193;50.866;5.420;2024-03-23T06:11:58;6.60;73.00
83289;DHT22;73193;50.866;5.420;2024-03-23T06:13:29;6.50;72.70
83289;DHT22;73193;50.866;5.420;2024-03-23T06:15:00;6.60;72.90
83289;DHT22;73193;50.866;5.420;2024-03-23T06:16:31;6.60;72.70
83289;DHT22;73193;50.866;5.420;2024-03-23T06:18:02;6.70;72.60
83289;DHT22;73193;50.866;5.420;2024-03-23T06:19:33;6.70;72.50
83289;DHT22;73193;50.866;5.420;2024-03-23T06:21:04;6.50;73.10
83289;DHT22;73193;50.866;5.420;2024-03-23T06:22:35;6.60;73.70
83289;DHT22;73193;50.866;5.420;2024-03-23T06:24:05;6.80;73.20
83289;DHT22;73193;50.866;5.420;2024-03-23T06:25:36;6.80;73.40
83289;DHT22;73193;50.866;5.420;2024-03-23T06:27:07;6.80;73.30
83289;DHT22;73193;50.866;5.420;2024-03-23T06:28:37;6.70;73.40
83289;DHT22;73193;50.866;5.420;2024-03-23T06:30:08;6.80;73.90
83289;DHT22;73193;50.866;5.420;2024-03-23T06:31:39;7.00;73.40
83289;DHT22;73193;50.866;5.420;2024-03-23T06:33:09;7.10;72.50
83289;DHT22;73193;50.866;5.420;2024-03-23T06:34:43;6.90;73.10
83289;DHT22;73193;50.866;5.420;2024-03-23T06:36:14;6.80;73.50
83289;DHT22;73193;50.866;5.420;2024-03-23T06:37:45;6.80;73.20
83289;DHT22;73193;50.866;5.420;2024-03-23T06:39:16;6.70;73.40
83289;DHT22;73193;50.866;5.420;2024-03-23T06:40:47;6.70;73.80
83289;DHT22;73193;50.866;5.420;2024-03-23T06:42:21;6.60;73.40
83289;DHT22;73193;50.866;5.420;2024-03-23T06:43:51;6.60;73.20
83289;DHT22;73193;50.866;5.420;2024-03-23T06:45:22;6.60;73.20
83289;DHT22;73193;50.866;5.420;2024-03-23T06:46:53;6.40;74.20
83289;DHT22;73193;50.866;5.420;2024-03-23T06:48:24;6.60;73.50
83289;DHT22;73193;50.866;5.420;2024-03-23T06:49:54;6.60;73.70
83289;DHT22;73193;50.866;5.420;2024-03-23T06:51:25;6.70;73.80
83289;DHT22;73193;50.866;5.420;2024-03-23T06:52:56;6.90;73.20
83289;DHT22;73193;50.866;5.420;2024-03-23T06:54:26;7.00;73.00
83289;DHT22;73193;50.866;5.420;2024-03-23T06:55:57;7.10;72.10
83289;DHT22;73193;50.866;5.420;2024-03-23T06:57:28;7.20;72.30
83289;DHT22;73193;50.866;5.420;2024-03-23T06:58:59;7.20;72.00
83289;DHT22;73193;50.866;5.420;2024-03-23T07:00:30;7.40;71.50
83289;DHT22;73193;50.866;5.420;2024-03-23T07:02:01;7.40;71.90
83289;DHT22;73193;50.866;5.420;2024-03-23T07:03:31;7.50;71.90
83289;DHT22;73193;50.866;5.420;2024-03-23T07:05:02;7.50;71.50
83289;DHT22;73193;50.866;5.420;2024-03-23T07:06:33;7.50;70.80
83289;DHT22;73193;50.866;5.420;2024-03-23T07:08:05;7.40;71.90
83289;DHT22;73193;50.866;5.420;2024-03-23T07:09:35;7.50;71.90
83289;DHT22;73193;50.866;5.420;2024-03-23T07:11:08;7.60;71.70
83289;DHT22;73193;50.866;5.420;2024-03-23T07:12:38;7.80;70.90
83289;DHT22;73193;50.866;5.420;2024-03-23T07:14:09;7.60;70.50
83289;DHT22;73193;50.866;5.420;2024-03-23T07:15:39;7.80;70.60
83289;DHT22;73193;50.866;5.420;2024-03-23T07:17:10;7.60;70.20
83289;DHT22;73193;50.866;5.420;2024-03-23T07:18:41;7.60;70.00
83289;DHT22;73193;50.866;5.420;2024-03-23T07:20:12;7.50;70.70
83289;DHT22;73193;50.866;5.420;2024-03-23T07:21:44;7.40;70.60
83289;DHT22;73193;50.866;5.420;2024-03-23T07:23:15;7.20;70.50
83289;DHT22;73193;50.866;5.420;2024-03-23T07:24:45;7.20;70.50
83289;DHT22;73193;50.866;5.420;2024-03-23T07:26:16;7.30;70.40
83289;DHT22;73193;50.866;5.420;2024-03-23T07:27:46;7.20;70.90
83289;DHT22;73193;50.866;5.420;2024-03-23T07:29:17;7.20;70.50
83289;DHT22;73193;50.866;5.420;2024-03-23T07:30:48;7.50;71.20
83289;DHT22;73193;50.866;5.420;2024-03-23T07:32:18;8.00;70.30
83289;DHT22;73193;50.866;5.420;2024-03-23T07:33:49;8.10;69.10
83289;DHT22;73193;50.866;5.420;2024-03-23T07:35:20;8.30;69.60
83289;DHT22;73193;50.866;5.420;2024-03-23T07:36:50;8.50;68.30
83289;DHT22;73193;50.866;5.420;2024-03-23T07:38:21;8.60;68.10
83289;DHT22;73193;50.866;5.420;2024-03-23T07:39:51;8.40;68.50
83289;DHT22;73193;50.866;5.420;2024-03-23T07:41:22;8.20;68.70
83289;DHT22;73193;50.866;5.420;2024-03-23T07:42:53;8.30;68.40
83289;DHT22;73193;50.866;5.420;2024-03-23T07:44:25;8.00;69.00
83289;DHT22;73193;50.866;5.420;2024-03-23T07:45:56;8.10;69.50
83289;DHT22;73193;50.866;5.420;2024-03-23T07:47:26;8.10;68.30
83289;DHT22;73193;50.866;5.420;2024-03-23T07:48:57;8.40;68.50
83289;DHT22;73193;50.866;5.420;2024-03-23T07:50:27;8.20;69.30
83289;DHT22;73193;50.866;5.420;2024-03-23T07:51:58;8.40;69.70
83289;DHT22;73193;50.866;5.420;2024-03-23T07:53:29;8.00;68.10
83289;DHT22;73193;50.866;5.420;2024-03-23T07:54:59;7.90;68.10
83289;DHT22;73193;50.866;5.420;2024-03-23T07:56:30;7.90;69.40
83289;DHT22;73193;50.866;5.420;2024-03-23T07:58:01;8.20;68.30
83289;DHT22;73193;50.866;5.420;2024-03-23T07:59:32;8.10;68.10
83289;DHT22;73193;50.866;5.420;2024-03-23T08:01:05;8.00;69.20
83289;DHT22;73193;50.866;5.420;2024-03-23T08:02:39;8.20;68.40
83289;DHT22;73193;50.866;5.420;2024-03-23T08:04:10;8.10;68.70
83289;DHT22;73193;50.866;5.420;2024-03-23T08:05:41;7.80;68.80
83289;DHT22;73193;50.866;5.420;2024-03-23T08:07:12;7.60;69.20
83289;DHT22;73193;50.866;5.420;2024-03-23T08:08:44;7.70;69.90
83289;DHT22;73193;50.866;5.420;2024-03-23T08:10:15;8.20;69.60
83289;DHT22;73193;50.866;5.420;2024-03-23T08:11:48;8.60;68.70
83289;DHT22;73193;50.866;5.420;2024-03-23T08:13:19;9.00;67.20
83289;DHT22;73193;50.866;5.420;2024-03-23T08:14:50;9.60;66.60
83289;DHT22;73193;50.866;5.420;2024-03-23T08:16:21;10.00;65.40
83289;DHT22;73193;50.866;5.420;2024-03-23T08:17:51;9.80;65.20
83289;DHT22;73193;50.866;5.420;2024-03-23T08:19:22;9.60;63.80
83289;DHT22;73193;50.866;5.420;2024-03-23T08:21:04;9.00;66.20
83289;DHT22;73193;50.866;5.420;2024-03-23T08:22:35;8.90;66.00
83289;DHT22;73193;50.866;5.420;2024-03-23T08:24:06;8.40;66.90
83289;DHT22;73193;50.866;5.420;2024-03-23T08:25:37;8.40;68.00
83289;DHT22;73193;50.866;5.420;2024-03-23T08:27:08;8.60;67.40
83289;DHT22;73193;50.866;5.420;2024-03-23T08:28:39;8.30;66.80
83289;DHT22;73193;50.866;5.420;2024-03-23T08:30:09;8.60;67.50
83289;DHT22;73193;50.866;5.420;2024-03-23T08:31:40;8.60;66.70
83289;DHT22;73193;50.866;5.420;2024-03-23T08:33:11;8.80;66.60
83289;DHT22;73193;50.866;5.420;2024-03-23T08:34:41;8.90;66.20
83289;DHT22;73193;50.866;5.420;2024-03-23T08:36:12;8.50;66.70
83289;DHT22;73193;50.866;5.420;2024-03-23T08:37:44;8.30;67.60
83289;DHT22;73193;50.866;5.420;2024-03-23T08:39:15;8.20;67.20
83289;DHT22;73193;50.866;5.420;2024-03-23T08:40:45;8.10;67.30
83289;DHT22;73193;50.866;5.420;2024-03-23T08:42:16;8.10;67.60
83289;DHT22;73193;50.866;5.420;2024-03-23T08:44:10;8.10;67.60
83289;DHT22;73193;50.866;5.420;2024-03-23T08:46:14;8.60;67.30
83289;DHT22;73193;50.866;5.420;2024-03-23T08:47:45;9.00;66.10
83289;DHT22;73193;50.866;5.420;2024-03-23T08:49:16;9.10;66.00
83289;DHT22;73193;50.866;5.420;2024-03-23T08:50:47;9.40;65.50
83289;DHT22;73193;50.866;5.420;2024-03-23T08:52:27;9.50;65.30
83289;DHT22;73193;50.866;5.420;2024-03-23T08:54:00;9.70;64.50
83289;DHT22;73193;50.866;5.420;2024-03-23T08:55:30;9.50;63.90
83289;DHT22;73193;50.866;5.420;2024-03-23T08:57:01;9.40;63.60
83289;DHT22;73193;50.866;5.420;2024-03-23T08:58:33;9.10;62.70
83289;DHT22;73193;50.866;5.420;2024-03-23T09:00:04;9.20;63.60
83289;DHT22;73193;50.866;5.420;2024-03-23T09:01:36;9.50;62.80
83289;DHT22;73193;50.866;5.420;2024-03-23T09:03:11;9.70;62.40
83289;DHT22;73193;50.866;5.420;2024-03-23T09:04:43;9.80;62.30
83289;DHT22;73193;50.866;5.420;2024-03-23T09:06:14;9.80;62.00
83289;DHT22;73193;50.866;5.420;2024-03-23T09:07:45;10.00;63.20
83289;DHT22;73193;50.866;5.420;2024-03-23T09:09:26;9.50;61.70
83289;DHT22;73193;50.866;5.420;2024-03-23T09:11:09;9.30;62.60
83289;DHT22;73193;50.866;5.420;2024-03-23T09:12:39;9.90;63.90
83289;DHT22;73193;50.866;5.420;2024-03-23T09:14:10;10.50;61.30
83289;DHT22;73193;50.866;5.420;2024-03-23T09:15:51;10.50;62.90
83289;DHT22;73193;50.866;5.420;2024-03-23T09:17:24;10.40;60.20
83289;DHT22;73193;50.866;5.420;2024-03-23T09:18:55;10.50;61.60
83289;DHT22;73193;50.866;5.420;2024-03-23T09:20:26;10.50;61.00
83289;DHT22;73193;50.866;5.420;2024-03-23T09:21:56;10.40;61.20
83289;DHT22;73193;50.866;5.420;2024-03-23T09:23:27;10.60;60.00
83289;DHT22;73193;50.866;5.420;2024-03-23T09:25:24;10.60;61.70
83289;DHT22;73193;50.866;5.420;2024-03-23T09:27:15;11.10;60.50
83289;DHT22;73193;50.866;5.420;2024-03-23T09:28:49;10.90;60.70
83289;DHT22;73193;50.866;5.420;2024-03-23T09:30:19;11.10;60.10
83289;DHT22;73193;50.866;5.420;2024-03-23T09:31:50;11.40;58.30
83289;DHT22;73193;50.866;5.420;2024-03-23T09:33:20;11.70;59.10
83289;DHT22;73193;50.866;5.420;2024-03-23T09:34:51;12.10;57.90
83289;DHT22;73193;50.866;5.420;2024-03-23T09:36:22;12.20;57.70
83289;DHT22;73193;50.866;5.420;2024-03-23T09:37:52;11.90;56.50
83289;DHT22;73193;50.866;5.420;2024-03-23T09:39:23;12.30;58.40
83289;DHT22;73193;50.866;5.420;2024-03-23T09:40:54;12.30;56.60
83289;DHT22;73193;50.866;5.420;2024-03-23T09:42:24;12.20;57.70
83289;DHT22;73193;50.866;5.420;2024-03-23T09:43:55;12.80;56.20
83289;DHT22;73193;50.866;5.420;2024-03-23T09:45:29;13.20;53.90
83289;DHT22;73193;50.866;5.420;2024-03-23T09:47:00;12.30;56.10
83289;DHT22;73193;50.866;5.420;2024-03-23T09:48:31;11.70;57.30
83289;DHT22;73193;50.866;5.420;2024-03-23T09:50:02;12.10;57.90
83289;DHT22;73193;50.866;5.420;2024-03-23T09:51:38;11.90;56.10
83289;DHT22;73193;50.866;5.420;2024-03-23T09:53:13;11.40;56.90
83289;DHT22;73193;50.866;5.420;2024-03-23T09:54:44;11.40;55.30
83289;DHT22;73193;50.866;5.420;2024-03-23T09:56:15;11.30;55.70
83289;DHT22;73193;50.866;5.420;2024-03-23T09:57:47;11.10;55.60
83289;DHT22;73193;50.866;5.420;2024-03-23T09:59:18;11.10;55.80
83289;DHT22;73193;50.866;5.420;2024-03-23T10:00:49;10.90;56.00
83289;DHT22;73193;50.866;5.420;2024-03-23T10:02:19;10.50;56.50
83289;DHT22;73193;50.866;5.420;2024-03-23T10:03:51;10.50;56.20
83289;DHT22;73193;50.866;5.420;2024-03-23T10:05:22;10.50;56.40
83289;DHT22;73193;50.866;5.420;2024-03-23T10:06:53;10.70;57.40
83289;DHT22;73193;50.866;5.420;2024-03-23T10:08:24;11.30;56.30
83289;DHT22;73193;50.866;5.420;2024-03-23T10:09:56;11.40;55.70
83289;DHT22;73193;50.866;5.420;2024-03-23T10:11:27;11.10;56.40
83289;DHT22;73193;50.866;5.420;2024-03-23T10:12:59;11.30;56.20
83289;DHT22;73193;50.866;5.420;2024-03-23T10:14:30;10.70;56.10
83289;DHT22;73193;50.866;5.420;2024-03-23T10:16:01;10.30;56.50
83289;DHT22;73193;50.866;5.420;2024-03-23T10:17:31;10.40;56.80
83289;DHT22;73193;50.866;5.420;2024-03-23T10:19:02;10.70;57.90
83289;DHT22;73193;50.866;5.420;2024-03-23T10:20:33;11.10;56.40
83289;DHT22;73193;50.866;5.420;2024-03-23T10:22:03;11.10;56.50
83289;DHT22;73193;50.866;5.420;2024-03-23T10:23:38;10.80;56.60
83289;DHT22;73193;50.866;5.420;2024-03-23T10:25:10;10.20;56.60
83289;DHT22;73193;50.866;5.420;2024-03-23T10:26:41;10.40;58.30
83289;DHT22;73193;50.866;5.420;2024-03-23T10:28:12;10.20;58.20
83289;DHT22;73193;50.866;5.420;2024-03-23T10:29:42;10.00;57.50
83289;DHT22;73193;50.866;5.420;2024-03-23T10:31:13;10.00;56.70
83289;DHT22;73193;50.866;5.420;2024-03-23T10:32:44;9.50;57.90
83289;DHT22;73193;50.866;5.420;2024-03-23T10:34:16;9.50;57.60
83289;DHT22;73193;50.866;5.420;2024-03-23T10:35:47;9.20;56.90
83289;DHT22;73193;50.866;5.420;2024-03-23T10:37:18;9.20;57.70
83289;DHT22;73193;50.866;5.420;2024-03-23T10:38:53;9.20;57.20
83289;DHT22;73193;50.866;5.420;2024-03-23T10:40:25;9.40;57.60